sensor_id;sensor_type;location;lat;lon;timestamp;pressure;altitude;pressure_sealevel;temperature;humidity
37368;BME280;23240;43.210;27.910;2023-05-14T00:01:44;101855.22;;;9.86;100.00
37368;BME280;23240;43.210;27.910;2023-05-14T00:04:10;101854.19;;;9.88;100.00
37368;BME280;23240;43.210;27.910;2023-05-14T00:06:36;101853.38;;;9.86;100.00
37368;BME280;23240;43.210;27.910;2023-05-14T00:09:01;101852.53;;;9.86;100.00
37368;BME280;23240;43.210;27.910;2023-05-14T00:11:26;101852.44;;;9.73;100.00
37368;BME280;23240;43.210;27.910;2023-05-14T00:13:52;101856.25;;;9.69;100.00
37368;BME280;23240;43.210;27.910;2023-05-14T00:16:17;101854.59;;;9.66;100.00
37368;BME280;23240;43.210;27.910;2023-05-14T00:18:42;101857.66;;;9.60;100.00
37368;BME280;23240;43.210;27.910;2023-05-14T00:21:08;101863.16;;;9.57;100.00
37368;BME280;23240;43.210;27.910;2023-05-14T00:23:33;101865.56;;;9.62;100.00
37368;BME280;23240;43.210;27.910;2023-05-14T00:25:58;101870.94;;;9.62;100.00
37368;BME280;23240;43.210;27.910;2023-05-14T00:28:24;101863.28;;;9.56;100.00
37368;BME280;23240;43.210;27.910;2023-05-14T00:30:49;101865.78;;;9.59;100.00
37368;BME280;23240;43.210;27.910;2023-05-14T00:33:15;101864.91;;;9.58;100.00
37368;BME280;23240;43.210;27.910;2023-05-14T00:35:40;101864.13;;;9.56;100.00
37368;BME280;23240;43.210;27.910;2023-05-14T00:38:05;101875.84;;;9.69;100.00
37368;BME280;23240;43.210;27.910;2023-05-14T00:40:31;101866.56;;;9.75;100.00
37368;BME280;23240;43.210;27.910;2023-05-14T00:42:56;101872.59;;;9.78;100.00
37368;BME280;23240;43.210;27.910;2023-05-14T00:45:21;101874.50;;;9.76;100.00
37368;BME280;23240;43.210;27.910;2023-05-14T00:47:47;101873.47;;;9.79;100.00
37368;BME280;23240;43.210;27.910;2023-05-14T00:50:13;101868.22;;;9.77;100.00
37368;BME280;23240;43.210;27.910;2023-05-14T00:52:39;101867.63;;;9.72;100.00
37368;BME280;23240;43.210;27.910;2023-05-14T00:55:05;101866.16;;;9.67;100.00
37368;BME280;23240;43.210;27.910;2023-05-14T00:57:30;101868.53;;;9.57;100.00
37368;BME280;23240;43.210;27.910;2023-05-14T00:59:56;101873.22;;;9.53;100.00
37368;BME280;23240;43.210;27.910;2023-05-14T01:02:22;101869.09;;;9.48;100.00
37368;BME280;23240;43.210;27.910;2023-05-14T01:04:47;101877.38;;;9.43;100.00
37368;BME280;23240;43.210;27.910;2023-05-14T01:07:30;101878.25;;;9.44;100.00
37368;BME280;23240;43.210;27.910;2023-05-14T01:10:00;101869.44;;;9.42;100.00
37368;BME280;23240;43.210;27.910;2023-05-14T01:12:41;101865.84;;;9.43;100.00
37368;BME280;23240;43.210;27.910;2023-05-14T01:15:11;101858.75;;;9.42;100.00
37368;BME280;23240;43.210;27.910;2023-05-14T01:17:45;101862.38;;;9.41;100.00
37368;BME280;23240;43.210;27.910;2023-05-14T01:20:10;101847.97;;;9.43;100.00
37368;BME280;23240;43.210;27.910;2023-05-14T01:22:36;101844.44;;;9.43;100.00
37368;BME280;23240;43.210;27.910;2023-05-14T01:25:02;101847.88;;;9.45;100.00
37368;BME280;23240;43.210;27.910;2023-05-14T01:27:34;101851.13;;;9.50;100.00
37368;BME280;23240;43.210;27.910;2023-05-14T01:32:28;101844.44;;;9.57;100.00
37368;BME280;23240;43.210;27.910;2023-05-14T01:34:54;101841.28;;;9.50;100.00
37368;BME280;23240;43.210;27.910;2023-05-14T01:37:22;101848.19;;;9.55;100.00
37368;BME280;23240;43.210;27.910;2023-05-14T01:39:48;101848.34;;;9.51;100.00
37368;BME280;23240;43.210;27.910;2023-05-14T01:42:14;101852.00;;;9.50;100.00
37368;BME280;23240;43.210;27.910;2023-05-14T01:44:39;101847.31;;;9.54;100.00
37368;BME280;23240;43.210;27.910;2023-05-14T01:47:05;101849.41;;;9.49;100.00
37368;BME280;23240;43.210;27.910;2023-05-14T01:49:31;101850.38;;;9.48;100.00
37368;BME280;23240;43.210;27.910;2023-05-14T01:51:56;101850.97;;;9.53;100.00
37368;BME280;23240;43.210;27.910;2023-05-14T01:54:21;101853.09;;;9.62;100.00
37368;BME280;23240;43.210;27.910;2023-05-14T01:56:47;101859.47;;;9.60;100.00
37368;BME280;23240;43.210;27.910;2023-05-14T01:59:12;101854.66;;;9.50;100.00
37368;BME280;23240;43.210;27.910;2023-05-14T02:01:37;101855.63;;;9.49;100.00
37368;BME280;23240;43.210;27.910;2023-05-14T02:04:03;101853.06;;;9.48;100.00
37368;BME280;23240;43.210;27.910;2023-05-14T02:06:28;101859.78;;;9.39;100.00
37368;BME280;23240;43.210;27.910;2023-05-14T02:08:53;101860.47;;;9.43;100.00
37368;BME280;23240;43.210;27.910;2023-05-14T02:11:19;101865.31;;;9.36;100.00
37368;BME280;23240;43.210;27.910;2023-05-14T02:13:45;101870.84;;;9.33;100.00
37368;BME280;23240;43.210;27.910;2023-05-14T02:16:11;101865.69;;;9.30;100.00
37368;BME280;23240;43.210;27.910;2023-05-14T02:18:36;101866.91;;;9.24;100.00
37368;BME280;23240;43.210;27.910;2023-05-14T02:21:01;101875.88;;;9.23;100.00
37368;BME280;23240;43.210;27.910;2023-05-14T02:23:27;101878.25;;;9.28;100.00
37368;BME280;23240;43.210;27.910;2023-05-14T02:25:52;101877.50;;;9.26;100.00
37368;BME280;23240;43.210;27.910;2023-05-14T02:28:18;101871.38;;;9.24;100.00
37368;BME280;23240;43.210;27.910;2023-05-14T02:30:43;101872.41;;;9.21;100.00
37368;BME280;23240;43.210;27.910;2023-05-14T02:33:08;101869.16;;;9.16;100.00
37368;BME280;23240;43.210;27.910;2023-05-14T02:35:34;101861.22;;;9.15;100.00
37368;BME280;23240;43.210;27.910;2023-05-14T02:37:59;101864.94;;;9.12;100.00
37368;BME280;23240;43.210;27.910;2023-05-14T02:40:24;101875.72;;;9.11;100.00
37368;BME280;23240;43.210;27.910;2023-05-14T02:42:50;101878.13;;;9.15;100.00
37368;BME280;23240;43.210;27.910;2023-05-14T02:45:15;101869.66;;;9.23;100.00
37368;BME280;23240;43.210;27.910;2023-05-14T02:47:40;101876.53;;;9.27;100.00
37368;BME280;23240;43.210;27.910;2023-05-14T02:50:06;101880.88;;;9.30;100.00
37368;BME280;23240;43.210;27.910;2023-05-14T02:52:31;101874.47;;;9.32;100.00
37368;BME280;23240;43.210;27.910;2023-05-14T02:54:57;101874.28;;;9.35;100.00
37368;BME280;23240;43.210;27.910;2023-05-14T02:57:22;101873.84;;;9.43;100.00
37368;BME280;23240;43.210;27.910;2023-05-14T02:59:48;101871.56;;;9.51;100.00
37368;BME280;23240;43.210;27.910;2023-05-14T03:02:13;101877.34;;;9.59;100.00
37368;BME280;23240;43.210;27.910;2023-05-14T03:04:38;101865.41;;;9.65;100.00
37368;BME280;23240;43.210;27.910;2023-05-14T03:07:04;101871.22;;;9.71;100.00
37368;BME280;23240;43.210;27.910;2023-05-14T03:09:29;101868.41;;;9.89;100.00
37368;BME280;23240;43.210;27.910;2023-05-14T03:11:55;101877.44;;;10.02;100.00
37368;BME280;23240;43.210;27.910;2023-05-14T03:14:20;101882.00;;;10.14;100.00
37368;BME280;23240;43.210;27.910;2023-05-14T03:16:45;101886.78;;;10.09;100.00
37368;BME280;23240;43.210;27.910;2023-05-14T03:19:11;101886.59;;;10.12;100.00
37368;BME280;23240;43.210;27.910;2023-05-14T03:21:36;101884.78;;;10.13;100.00
37368;BME280;23240;43.210;27.910;2023-05-14T03:24:01;101880.28;;;10.13;100.00
37368;BME280;23240;43.210;27.910;2023-05-14T03:26:27;101881.94;;;10.16;100.00
37368;BME280;23240;43.210;27.910;2023-05-14T03:28:52;101887.75;;;10.08;100.00
37368;BME280;23240;43.210;27.910;2023-05-14T03:31:17;101882.78;;;10.16;100.00
37368;BME280;23240;43.210;27.910;2023-05-14T03:33:43;101885.09;;;10.22;100.00
37368;BME280;23240;43.210;27.910;2023-05-14T03:36:08;101888.75;;;10.36;100.00
37368;BME280;23240;43.210;27.910;2023-05-14T03:38:33;101892.00;;;10.41;100.00
37368;BME280;23240;43.210;27.910;2023-05-14T03:40:59;101897.66;;;10.50;100.00
37368;BME280;23240;43.210;27.910;2023-05-14T03:43:24;101887.22;;;10.60;100.00
37368;BME280;23240;43.210;27.910;2023-05-14T03:45:49;101900.50;;;10.76;100.00
37368;BME280;23240;43.210;27.910;2023-05-14T03:48:19;101896.63;;;10.94;100.00
37368;BME280;23240;43.210;27.910;2023-05-14T03:50:44;101878.94;;;11.19;100.00
37368;BME280;23240;43.210;27.910;2023-05-14T03:53:10;101875.59;;;11.42;100.00
37368;BME280;23240;43.210;27.910;2023-05-14T03:55:35;101877.34;;;11.69;100.00
37368;BME280;23240;43.210;27.910;2023-05-14T03:58:01;101886.00;;;11.87;100.00
37368;BME280;23240;43.210;27.910;2023-05-14T04:00:27;101886.31;;;12.07;100.00
37368;BME280;23240;43.210;27.910;2023-05-14T04:02:53;101893.31;;;12.23;100.00
37368;BME280;23240;43.210;27.910;2023-05-14T04:05:18;101895.47;;;12.30;100.00
37368;BME280;23240;43.210;27.910;2023-05-14T04:07:43;101894.94;;;12.25;100.00
37368;BME280;23240;43.210;27.910;2023-05-14T04:10:10;101901.28;;;12.24;100.00
37368;BME280;23240;43.210;27.910;2023-05-14T04:12:35;101903.00;;;12.25;100.00
37368;BME280;23240;43.210;27.910;2023-05-14T04:15:01;101904.91;;;12.36;100.00
37368;BME280;23240;43.210;27.910;2023-05-14T04:17:26;101902.44;;;12.46;100.00
37368;BME280;23240;43.210;27.910;2023-05-14T04:19:51;101901.13;;;12.64;100.00
37368;BME280;23240;43.210;27.910;2023-05-14T04:22:17;101900.00;;;12.79;100.00
37368;BME280;23240;43.210;27.910;2023-05-14T04:24:42;101890.44;;;12.88;100.00
37368;BME280;23240;43.210;27.910;2023-05-14T04:27:07;101890.81;;;12.95;100.00
37368;BME280;23240;43.210;27.910;2023-05-14T04:29:33;101899.72;;;13.08;100.00
37368;BME280;23240;43.210;27.910;2023-05-14T04:31:58;101891.38;;;13.24;100.00
37368;BME280;23240;43.210;27.910;2023-05-14T04:34:23;101892.97;;;13.85;100.00
37368;BME280;23240;43.210;27.910;2023-05-14T04:36:49;101890.03;;;14.57;100.00
37368;BME280;23240;43.210;27.910;2023-05-14T04:39:15;101886.34;;;14.81;100.00
37368;BME280;23240;43.210;27.910;2023-05-14T04:41:40;101889.31;;;15.21;100.00
37368;BME280;23240;43.210;27.910;2023-05-14T04:44:06;101894.50;;;15.98;100.00
37368;BME280;23240;43.210;27.910;2023-05-14T04:46:32;101893.34;;;16.42;100.00
37368;BME280;23240;43.210;27.910;2023-05-14T04:48:57;101888.44;;;16.98;100.00
37368;BME280;23240;43.210;27.910;2023-05-14T04:51:22;101892.06;;;17.46;100.00
37368;BME280;23240;43.210;27.910;2023-05-14T04:53:48;101890.91;;;17.97;98.36
37368;BME280;23240;43.210;27.910;2023-05-14T04:56:13;101888.09;;;17.60;97.54
37368;BME280;23240;43.210;27.910;2023-05-14T04:58:38;101892.94;;;17.76;98.11
37368;BME280;23240;43.210;27.910;2023-05-14T05:01:04;101893.09;;;17.84;95.21
37368;BME280;23240;43.210;27.910;2023-05-14T05:03:30;101880.13;;;18.25;92.45
37368;BME280;23240;43.210;27.910;2023-05-14T05:05:55;101877.19;;;18.83;89.69
37368;BME280;23240;43.210;27.910;2023-05-14T05:08:21;101878.28;;;18.90;86.65
37368;BME280;23240;43.210;27.910;2023-05-14T05:10:46;101885.88;;;19.32;84.28
37368;BME280;23240;43.210;27.910;2023-05-14T05:13:11;101889.53;;;19.41;83.08
37368;BME280;23240;43.210;27.910;2023-05-14T05:15:37;101886.78;;;19.94;81.41
37368;BME280;23240;43.210;27.910;2023-05-14T05:18:02;101883.28;;;20.02;79.02
37368;BME280;23240;43.210;27.910;2023-05-14T05:20:27;101887.81;;;19.93;79.11
37368;BME280;23240;43.210;27.910;2023-05-14T05:22:53;101888.94;;;19.83;79.29
37368;BME280;23240;43.210;27.910;2023-05-14T05:25:18;101877.97;;;19.57;82.36
37368;BME280;23240;43.210;27.910;2023-05-14T05:27:44;101882.19;;;19.69;82.76
37368;BME280;23240;43.210;27.910;2023-05-14T05:30:09;101881.28;;;19.86;82.67
37368;BME280;23240;43.210;27.910;2023-05-14T05:32:35;101880.19;;;20.49;77.24
37368;BME280;23240;43.210;27.910;2023-05-14T05:35:00;101883.50;;;20.61;74.65
37368;BME280;23240;43.210;27.910;2023-05-14T05:37:26;101881.13;;;20.66;75.39
37368;BME280;23240;43.210;27.910;2023-05-14T05:39:51;101887.66;;;20.81;75.21
37368;BME280;23240;43.210;27.910;2023-05-14T05:42:18;101883.16;;;20.64;76.89
37368;BME280;23240;43.210;27.910;2023-05-14T05:44:43;101876.94;;;20.88;75.73
37368;BME280;23240;43.210;27.910;2023-05-14T05:47:08;101877.59;;;21.32;72.74
37368;BME280;23240;43.210;27.910;2023-05-14T05:49:33;101873.88;;;21.82;68.96
37368;BME280;23240;43.210;27.910;2023-05-14T05:52:00;101878.31;;;21.91;65.90
37368;BME280;23240;43.210;27.910;2023-05-14T05:54:26;101875.88;;;22.29;62.64
37368;BME280;23240;43.210;27.910;2023-05-14T05:56:51;101878.88;;;22.50;60.86
37368;BME280;23240;43.210;27.910;2023-05-14T05:59:16;101872.97;;;22.78;58.23
37368;BME280;23240;43.210;27.910;2023-05-14T06:01:42;101872.19;;;23.00;55.63
37368;BME280;23240;43.210;27.910;2023-05-14T06:04:07;101866.19;;;23.05;56.57
37368;BME280;23240;43.210;27.910;2023-05-14T06:06:33;101867.34;;;23.11;55.28
37368;BME280;23240;43.210;27.910;2023-05-14T06:08:58;101868.75;;;23.29;55.17
37368;BME280;23240;43.210;27.910;2023-05-14T06:11:25;101876.16;;;23.21;55.07
37368;BME280;23240;43.210;27.910;2023-05-14T06:13:51;101881.22;;;22.62;55.07
37368;BME280;23240;43.210;27.910;2023-05-14T06:16:16;101887.09;;;22.81;53.84
37368;BME280;23240;43.210;27.910;2023-05-14T06:18:41;101884.66;;;23.03;52.98
37368;BME280;23240;43.210;27.910;2023-05-14T06:21:07;101881.81;;;23.19;47.73
37368;BME280;23240;43.210;27.910;2023-05-14T06:23:32;101887.50;;;23.41;49.25
37368;BME280;23240;43.210;27.910;2023-05-14T06:25:57;101889.13;;;23.50;49.12
37368;BME280;23240;43.210;27.910;2023-05-14T06:28:22;101890.41;;;23.62;50.78
37368;BME280;23240;43.210;27.910;2023-05-14T06:30:48;101885.97;;;23.84;49.80
37368;BME280;23240;43.210;27.910;2023-05-14T06:33:14;101880.53;;;23.99;48.19
37368;BME280;23240;43.210;27.910;2023-05-14T06:35:39;101886.13;;;24.20;48.67
37368;BME280;23240;43.210;27.910;2023-05-14T06:38:04;101885.31;;;24.49;46.42
37368;BME280;23240;43.210;27.910;2023-05-14T06:40:30;101883.38;;;24.35;48.00
37368;BME280;23240;43.210;27.910;2023-05-14T06:42:56;101890.25;;;24.01;45.18
37368;BME280;23240;43.210;27.910;2023-05-14T06:45:21;101890.75;;;24.20;42.03
37368;BME280;23240;43.210;27.910;2023-05-14T06:47:46;101888.25;;;23.95;40.41
37368;BME280;23240;43.210;27.910;2023-05-14T06:50:11;101891.03;;;24.10;43.34
37368;BME280;23240;43.210;27.910;2023-05-14T06:52:37;101894.34;;;24.35;41.39
37368;BME280;23240;43.210;27.910;2023-05-14T06:55:02;101890.03;;;24.55;34.53
37368;BME280;23240;43.210;27.910;2023-05-14T06:57:27;101892.50;;;24.13;34.72
37368;BME280;23240;43.210;27.910;2023-05-14T06:59:53;101901.78;;;23.74;39.73
37368;BME280;23240;43.210;27.910;2023-05-14T07:02:18;101898.78;;;23.38;40.78
37368;BME280;23240;43.210;27.910;2023-05-14T07:04:43;101897.94;;;23.60;41.91
37368;BME280;23240;43.210;27.910;2023-05-14T07:07:09;101897.25;;;23.58;42.04
37368;BME280;23240;43.210;27.910;2023-05-14T07:09:37;101903.47;;;24.13;41.61
37368;BME280;23240;43.210;27.910;2023-05-14T07:12:02;101900.38;;;23.78;40.70
37368;BME280;23240;43.210;27.910;2023-05-14T07:14:28;101903.56;;;23.13;42.22
37368;BME280;23240;43.210;27.910;2023-05-14T07:16:53;101901.06;;;22.95;40.24
37368;BME280;23240;43.210;27.910;2023-05-14T07:19:18;101913.88;;;22.94;39.77
37368;BME280;23240;43.210;27.910;2023-05-14T07:21:44;101914.25;;;23.22;39.61
37368;BME280;23240;43.210;27.910;2023-05-14T07:24:09;101913.09;;;23.71;39.81
37368;BME280;23240;43.210;27.910;2023-05-14T07:26:35;101913.19;;;23.77;36.53
37368;BME280;23240;43.210;27.910;2023-05-14T07:29:00;101911.31;;;23.78;37.56
37368;BME280;23240;43.210;27.910;2023-05-14T07:31:25;101924.44;;;23.59;38.58
37368;BME280;23240;43.210;27.910;2023-05-14T07:33:51;101919.47;;;23.86;40.11
37368;BME280;23240;43.210;27.910;2023-05-14T07:36:16;101926.41;;;24.11;40.51
37368;BME280;23240;43.210;27.910;2023-05-14T07:38:41;101925.00;;;24.16;40.93
37368;BME280;23240;43.210;27.910;2023-05-14T07:41:07;101920.88;;;23.82;40.12
37368;BME280;23240;43.210;27.910;2023-05-14T07:43:32;101917.56;;;23.41;39.22
37368;BME280;23240;43.210;27.910;2023-05-14T07:45:57;101907.41;;;23.95;38.05
37368;BME280;23240;43.210;27.910;2023-05-14T07:48:23;101907.81;;;24.22;36.63
37368;BME280;23240;43.210;27.910;2023-05-14T07:50:48;101915.84;;;23.71;38.71
37368;BME280;23240;43.210;27.910;2023-05-14T07:53:13;101912.34;;;23.77;35.67
37368;BME280;23240;43.210;27.910;2023-05-14T07:55:39;101918.97;;;23.59;37.87
37368;BME280;23240;43.210;27.910;2023-05-14T07:58:05;101926.47;;;23.66;39.21
37368;BME280;23240;43.210;27.910;2023-05-14T08:00:31;101925.03;;;23.93;39.08
37368;BME280;23240;43.210;27.910;2023-05-14T08:02:56;101926.50;;;24.03;38.85
37368;BME280;23240;43.210;27.910;2023-05-14T08:05:21;101929.16;;;24.11;39.63
37368;BME280;23240;43.210;27.910;2023-05-14T08:07:46;101937.78;;;24.23;40.41
37368;BME280;23240;43.210;27.910;2023-05-14T08:10:12;101941.06;;;24.56;38.73
37368;BME280;23240;43.210;27.910;2023-05-14T08:12:37;101933.00;;;24.40;37.14
37368;BME280;23240;43.210;27.910;2023-05-14T08:15:03;101936.72;;;24.09;39.44
37368;BME280;23240;43.210;27.910;2023-05-14T08:17:28;101938.22;;;24.27;38.27
37368;BME280;23240;43.210;27.910;2023-05-14T08:19:54;101931.84;;;23.97;39.46
37368;BME280;23240;43.210;27.910;2023-05-14T08:22:19;101932.75;;;24.27;40.67
37368;BME280;23240;43.210;27.910;2023-05-14T08:24:45;101940.56;;;23.77;38.56
37368;BME280;23240;43.210;27.910;2023-05-14T08:27:11;101928.44;;;23.26;39.31
37368;BME280;23240;43.210;27.910;2023-05-14T08:29:36;101934.59;;;22.89;39.18
37368;BME280;23240;43.210;27.910;2023-05-14T08:32:01;101930.63;;;22.36;40.23
37368;BME280;23240;43.210;27.910;2023-05-14T08:34:27;101921.25;;;22.14;40.45
37368;BME280;23240;43.210;27.910;2023-05-14T08:36:52;101918.81;;;22.43;40.98
37368;BME280;23240;43.210;27.910;2023-05-14T08:39:18;101916.78;;;22.37;40.04
37368;BME280;23240;43.210;27.910;2023-05-14T08:41:43;101914.28;;;21.87;41.15
37368;BME280;23240;43.210;27.910;2023-05-14T08:44:12;101907.28;;;21.76;42.64
37368;BME280;23240;43.210;27.910;2023-05-14T08:46:38;101899.28;;;21.83;41.59
37368;BME280;23240;43.210;27.910;2023-05-14T08:49:09;101901.31;;;22.05;43.21
37368;BME280;23240;43.210;27.910;2023-05-14T08:51:39;101900.59;;;22.27;39.21
37368;BME280;23240;43.210;27.910;2023-05-14T08:54:05;101892.06;;;22.30;38.86
37368;BME280;23240;43.210;27.910;2023-05-14T08:56:31;101899.75;;;22.19;41.35
37368;BME280;23240;43.210;27.910;2023-05-14T08:58:56;101897.03;;;22.02;41.80
37368;BME280;23240;43.210;27.910;2023-05-14T09:01:22;101901.47;;;21.71;38.23
37368;BME280;23240;43.210;27.910;2023-05-14T09:03:47;101907.94;;;21.37;41.67
37368;BME280;23240;43.210;27.910;2023-05-14T09:06:14;101907.94;;;21.37;43.82
37368;BME280;23240;43.210;27.910;2023-05-14T09:08:39;101904.50;;;21.35;41.88
37368;BME280;23240;43.210;27.910;2023-05-14T09:11:05;101901.72;;;21.19;44.18
37368;BME280;23240;43.210;27.910;2023-05-14T09:13:30;101906.75;;;20.89;43.39
37368;BME280;23240;43.210;27.910;2023-05-14T09:15:56;101909.13;;;20.84;44.44
37368;BME280;23240;43.210;27.910;2023-05-14T09:18:21;101910.09;;;20.83;44.51
37368;BME280;23240;43.210;27.910;2023-05-14T09:20:46;101904.66;;;20.83;46.05
37368;BME280;23240;43.210;27.910;2023-05-14T09:23:12;101897.47;;;21.08;45.51
37368;BME280;23240;43.210;27.910;2023-05-14T09:25:37;101900.34;;;21.15;44.25
37368;BME280;23240;43.210;27.910;2023-05-14T09:28:07;101902.78;;;20.84;47.64
37368;BME280;23240;43.210;27.910;2023-05-14T09:30:32;101898.59;;;20.97;50.09
37368;BME280;23240;43.210;27.910;2023-05-14T09:32:59;101899.63;;;20.96;50.70
37368;BME280;23240;43.210;27.910;2023-05-14T09:35:24;101894.47;;;20.93;52.32
37368;BME280;23240;43.210;27.910;2023-05-14T09:37:50;101888.94;;;20.69;60.59
37368;BME280;23240;43.210;27.910;2023-05-14T09:40:16;101901.72;;;20.42;71.51
37368;BME280;23240;43.210;27.910;2023-05-14T09:42:42;101911.63;;;20.17;84.99
37368;BME280;23240;43.210;27.910;2023-05-14T09:45:08;101921.97;;;19.96;95.68
37368;BME280;23240;43.210;27.910;2023-05-14T09:47:34;101926.81;;;19.84;99.12
37368;BME280;23240;43.210;27.910;2023-05-14T09:49:59;101930.31;;;19.59;97.12
37368;BME280;23240;43.210;27.910;2023-05-14T09:52:25;101930.19;;;19.78;89.38
37368;BME280;23240;43.210;27.910;2023-05-14T09:54:53;101920.03;;;19.52;78.78
37368;BME280;23240;43.210;27.910;2023-05-14T09:57:19;101923.91;;;19.32;87.86
37368;BME280;23240;43.210;27.910;2023-05-14T09:59:44;101920.03;;;19.52;74.08
37368;BME280;23240;43.210;27.910;2023-05-14T10:02:55;101929.84;;;19.45;79.45
37368;BME280;23240;43.210;27.910;2023-05-14T10:05:01;101911.44;;;19.39;84.20
37368;BME280;23240;43.210;27.910;2023-05-14T10:07:28;101920.03;;;19.35;64.45
37368;BME280;23240;43.210;27.910;2023-05-14T10:10:00;101916.84;;;19.57;68.55
37368;BME280;23240;43.210;27.910;2023-05-14T10:12:27;101917.66;;;19.67;74.15
37368;BME280;23240;43.210;27.910;2023-05-14T10:14:53;101919.75;;;19.56;89.11
37368;BME280;23240;43.210;27.910;2023-05-14T10:17:20;101915.53;;;19.43;77.36
37368;BME280;23240;43.210;27.910;2023-05-14T10:19:46;101921.72;;;19.63;81.29
37368;BME280;23240;43.210;27.910;2023-05-14T10:22:12;101913.03;;;19.32;86.52
37368;BME280;23240;43.210;27.910;2023-05-14T10:24:39;101917.72;;;19.58;90.72
37368;BME280;23240;43.210;27.910;2023-05-14T10:27:04;101909.59;;;19.75;93.71
37368;BME280;23240;43.210;27.910;2023-05-14T10:29:33;101905.63;;;19.88;76.97
37368;BME280;23240;43.210;27.910;2023-05-14T10:32:02;101903.75;;;19.88;82.47
37368;BME280;23240;43.210;27.910;2023-05-14T10:37:11;101898.78;;;19.66;87.51
37368;BME280;23240;43.210;27.910;2023-05-14T10:42:07;101895.91;;;19.85;91.29
37368;BME280;23240;43.210;27.910;2023-05-14T10:44:33;101899.72;;;19.92;72.89
37368;BME280;23240;43.210;27.910;2023-05-14T10:46:59;101902.75;;;19.71;71.41
37368;BME280;23240;43.210;27.910;2023-05-14T10:49:25;101907.16;;;19.72;70.13
37368;BME280;23240;43.210;27.910;2023-05-14T10:51:51;101905.75;;;19.86;68.62
37368;BME280;23240;43.210;27.910;2023-05-14T10:54:21;101902.47;;;20.00;61.27
37368;BME280;23240;43.210;27.910;2023-05-14T10:56:46;101903.13;;;19.94;68.40
37368;BME280;23240;43.210;27.910;2023-05-14T10:59:14;101901.72;;;19.90;69.69
37368;BME280;23240;43.210;27.910;2023-05-14T11:01:40;101911.44;;;19.75;70.04
37368;BME280;23240;43.210;27.910;2023-05-14T11:04:06;101903.44;;;19.56;69.22
37368;BME280;23240;43.210;27.910;2023-05-14T11:06:31;101900.41;;;19.59;69.41
37368;BME280;23240;43.210;27.910;2023-05-14T11:08:59;101906.94;;;19.84;60.01
37368;BME280;23240;43.210;27.910;2023-05-14T11:11:25;101905.69;;;20.22;60.79
37368;BME280;23240;43.210;27.910;2023-05-14T11:13:51;101909.09;;;19.98;55.87
37368;BME280;23240;43.210;27.910;2023-05-14T11:16:17;101902.16;;;20.29;56.33
37368;BME280;23240;43.210;27.910;2023-05-14T11:18:46;101891.81;;;20.33;51.27
37368;BME280;23240;43.210;27.910;2023-05-14T11:21:11;101893.25;;;20.45;51.72
37368;BME280;23240;43.210;27.910;2023-05-14T11:23:37;101896.06;;;20.62;48.82
37368;BME280;23240;43.210;27.910;2023-05-14T11:26:02;101889.72;;;20.87;50.76
37368;BME280;23240;43.210;27.910;2023-05-14T11:28:27;101893.06;;;20.73;48.95
37368;BME280;23240;43.210;27.910;2023-05-14T11:30:53;101877.31;;;20.50;46.19
37368;BME280;23240;43.210;27.910;2023-05-14T11:33:19;101877.91;;;20.36;44.68
37368;BME280;23240;43.210;27.910;2023-05-14T11:35:47;101868.00;;;20.35;45.89
37368;BME280;23240;43.210;27.910;2023-05-14T11:38:16;101867.16;;;20.61;45.65
37368;BME280;23240;43.210;27.910;2023-05-14T11:40:46;101861.88;;;20.33;47.16
37368;BME280;23240;43.210;27.910;2023-05-14T11:43:15;101860.13;;;20.24;51.72
37368;BME280;23240;43.210;27.910;2023-05-14T11:45:41;101842.22;;;20.13;51.86
37368;BME280;23240;43.210;27.910;2023-05-14T11:48:12;101839.91;;;20.00;52.50
37368;BME280;23240;43.210;27.910;2023-05-14T11:50:39;101843.38;;;20.11;53.68
37368;BME280;23240;43.210;27.910;2023-05-14T11:53:04;101834.53;;;20.09;57.31
37368;BME280;23240;43.210;27.910;2023-05-14T11:55:32;101831.28;;;19.79;55.13
37368;BME280;23240;43.210;27.910;2023-05-14T11:57:57;101834.19;;;19.60;59.41
37368;BME280;23240;43.210;27.910;2023-05-14T12:00:23;101812.47;;;19.86;57.60
37368;BME280;23240;43.210;27.910;2023-05-14T12:02:50;101805.59;;;19.99;60.38
37368;BME280;23240;43.210;27.910;2023-05-14T12:05:15;101797.59;;;19.98;57.81
37368;BME280;23240;43.210;27.910;2023-05-14T12:07:43;101794.88;;;19.72;65.24
37368;BME280;23240;43.210;27.910;2023-05-14T12:10:10;101796.94;;;19.34;77.99
37368;BME280;23240;43.210;27.910;2023-05-14T12:12:36;101800.03;;;19.39;67.03
37368;BME280;23240;43.210;27.910;2023-05-14T12:15:01;101798.84;;;19.42;65.19
37368;BME280;23240;43.210;27.910;2023-05-14T12:17:34;101795.72;;;19.11;78.04
37368;BME280;23240;43.210;27.910;2023-05-14T12:20:01;101790.66;;;18.98;80.72
37368;BME280;23240;43.210;27.910;2023-05-14T12:22:28;101797.56;;;18.92;82.56
37368;BME280;23240;43.210;27.910;2023-05-14T12:24:57;101783.44;;;18.61;85.18
37368;BME280;23240;43.210;27.910;2023-05-14T12:27:22;101789.81;;;18.52;89.17
37368;BME280;23240;43.210;27.910;2023-05-14T12:29:49;101789.75;;;18.34;93.28
37368;BME280;23240;43.210;27.910;2023-05-14T12:32:17;101779.78;;;18.25;93.85
37368;BME280;23240;43.210;27.910;2023-05-14T12:34:43;101786.50;;;18.21;92.16
37368;BME280;23240;43.210;27.910;2023-05-14T12:37:09;101786.63;;;17.92;90.57
37368;BME280;23240;43.210;27.910;2023-05-14T12:39:34;101788.09;;;17.86;98.16